createdAt,value
2018-10-18T00:01:02.510Z,32.93
2018-10-18T00:03:30.013Z,32.73
2018-10-18T00:05:57.485Z,33.35
2018-10-18T00:08:24.977Z,32.88
2018-10-18T00:10:52.450Z,36.60
2018-10-18T00:13:19.906Z,35.05
2018-10-18T00:15:47.642Z,33.33
2018-10-18T00:18:15.239Z,34.10
2018-10-18T00:20:42.653Z,32.10
2018-10-18T00:23:10.124Z,33.45
2018-10-18T00:25:37.577Z,32.48
2018-10-18T00:28:05.124Z,32.23
2018-10-18T00:30:32.604Z,33.70
2018-10-18T00:33:00.083Z,31.60
2018-10-18T00:35:27.578Z,33.88
2018-10-18T00:37:55.110Z,35.17
2018-10-18T00:40:22.601Z,34.70
2018-10-18T00:42:50.043Z,34.18
2018-10-18T00:45:17.573Z,35.10
2018-10-18T00:47:45.097Z,32.65
2018-10-18T00:50:12.650Z,33.38
2018-10-18T00:52:40.189Z,33.00
2018-10-18T00:55:08.768Z,31.45
2018-10-18T00:57:36.266Z,31.85
2018-10-18T01:00:04.249Z,33.30
2018-10-18T01:02:31.740Z,32.63
2018-10-18T01:04:59.221Z,31.80
2018-10-18T01:07:26.686Z,33.08
2018-10-18T01:09:54.164Z,32.23
2018-10-18T01:12:21.802Z,31.50
2018-10-18T01:14:49.193Z,30.57
2018-10-18T01:17:17.515Z,29.27
2018-10-18T01:19:44.995Z,32.25
2018-10-18T01:22:12.468Z,31.17
2018-10-18T01:24:39.956Z,28.98
2018-10-18T01:27:07.501Z,30.25
2018-10-18T01:29:34.969Z,29.30
2018-10-18T01:32:02.547Z,30.70
2018-10-18T01:34:29.905Z,30.52
2018-10-18T01:36:57.381Z,28.98
2018-10-18T01:39:24.900Z,26.37
2018-10-18T01:41:52.386Z,28.95
2018-10-18T01:44:19.917Z,27.52
2018-10-18T01:46:47.399Z,27.77
2018-10-18T01:49:14.854Z,27.58
2018-10-18T01:51:42.346Z,26.75
2018-10-18T01:54:09.900Z,26.25
2018-10-18T01:56:37.303Z,27.85
2018-10-18T01:59:04.865Z,26.70
2018-10-18T02:01:32.388Z,27.67
2018-10-18T02:04:00.233Z,27.73
2018-10-18T02:06:28.011Z,25.65
2018-10-18T02:08:55.484Z,27.27
2018-10-18T02:11:22.951Z,27.07
2018-10-18T02:13:50.483Z,25.15
2018-10-18T02:16:18.056Z,26.05
2018-10-18T02:18:45.569Z,28.00
2018-10-18T02:21:13.143Z,25.08
2018-10-18T02:23:40.619Z,27.05
2018-10-18T02:26:08.092Z,26.70
2018-10-18T02:28:35.696Z,25.65
2018-10-18T02:31:03.276Z,25.45
2018-10-18T02:33:30.782Z,26.70
2018-10-18T02:35:58.335Z,25.77
2018-10-18T02:38:25.818Z,24.02
2018-10-18T02:40:53.318Z,23.95
2018-10-18T02:43:20.802Z,25.57
2018-10-18T02:45:48.288Z,25.52
2018-10-18T02:48:15.901Z,25.23
2018-10-18T02:50:43.349Z,26.02
2018-10-18T02:53:10.820Z,25.37
2018-10-18T02:55:38.345Z,25.25
2018-10-18T02:58:05.871Z,25.02
2018-10-18T03:00:33.368Z,24.35
2018-10-18T03:03:00.836Z,25.30
2018-10-18T03:05:28.279Z,26.20
2018-10-18T03:07:55.833Z,24.85
2018-10-18T03:10:23.323Z,25.30
2018-10-18T03:12:50.817Z,24.57
2018-10-18T03:15:18.283Z,25.45
2018-10-18T03:17:45.855Z,23.67
2018-10-18T03:20:13.329Z,24.87
2018-10-18T03:22:40.819Z,25.12
2018-10-18T03:25:09.459Z,25.23
2018-10-18T03:27:37.225Z,24.37
2018-10-18T03:30:05.847Z,23.52
2018-10-18T03:32:33.193Z,23.90
2018-10-18T03:35:00.755Z,23.98
2018-10-18T03:37:28.230Z,23.55
2018-10-18T03:39:55.712Z,23.75
2018-10-18T03:42:23.212Z,24.60
2018-10-18T03:44:50.709Z,23.47
2018-10-18T03:47:18.176Z,24.70
2018-10-18T03:49:45.659Z,24.20
2018-10-18T03:52:13.152Z,24.60
2018-10-18T03:54:40.682Z,23.80
2018-10-18T03:57:08.188Z,22.87
2018-10-18T03:59:35.679Z,24.80
2018-10-18T04:02:03.263Z,25.80
2018-10-18T04:04:30.739Z,23.70
2018-10-18T04:06:58.227Z,22.82
2018-10-18T04:09:25.724Z,25.48
2018-10-18T04:11:53.256Z,24.98
2018-10-18T04:14:20.645Z,23.90
2018-10-18T04:16:48.121Z,25.12
2018-10-18T04:19:15.728Z,24.55
2018-10-18T04:21:43.226Z,23.85
2018-10-18T04:24:10.724Z,23.70
2018-10-18T04:26:38.216Z,21.90
2018-10-18T04:29:05.696Z,23.95
2018-10-18T04:31:33.175Z,25.15
2018-10-18T04:34:00.650Z,25.17
2018-10-18T04:36:28.126Z,22.25
2018-10-18T04:38:55.604Z,23.35
2018-10-18T04:41:23.075Z,24.12
2018-10-18T04:43:50.534Z,23.55
2018-10-18T04:46:18.020Z,23.12
2018-10-18T04:48:45.545Z,22.98
2018-10-18T04:51:12.949Z,24.15
2018-10-18T04:53:40.466Z,25.48
2018-10-18T04:56:07.981Z,22.62
2018-10-18T04:58:35.469Z,23.12
2018-10-18T05:01:03.060Z,22.10
2018-10-18T05:03:30.535Z,23.40
2018-10-18T05:05:59.506Z,21.80
2018-10-18T05:08:27.426Z,23.50
2018-10-18T05:10:55.210Z,22.10
2018-10-18T05:13:22.776Z,24.65
2018-10-18T05:15:50.324Z,24.23
2018-10-18T05:18:18.096Z,25.85
2018-10-18T05:20:45.960Z,25.45
2018-10-18T05:23:13.474Z,24.72
2018-10-18T05:25:41.146Z,23.25
2018-10-18T05:28:08.541Z,22.98
2018-10-18T05:30:36.114Z,24.45
2018-10-18T05:33:03.711Z,23.47
2018-10-18T05:35:31.231Z,24.40
2018-10-18T05:37:58.707Z,25.32
2018-10-18T05:40:26.222Z,23.67
2018-10-18T05:42:53.733Z,22.73
2018-10-18T05:45:21.233Z,24.70
2018-10-18T05:47:48.693Z,24.27
2018-10-18T05:50:16.179Z,24.60
2018-10-18T05:52:43.661Z,24.50
2018-10-18T05:55:11.927Z,23.35
2018-10-18T05:57:40.060Z,24.23
2018-10-18T06:00:13.193Z,25.77
2018-10-18T06:02:41.325Z,24.20
2018-10-18T06:05:09.687Z,26.33
2018-10-18T06:07:37.257Z,24.55
2018-10-18T06:10:15.088Z,24.15
2018-10-18T06:12:42.669Z,23.90
2018-10-18T06:15:10.244Z,25.15
2018-10-18T06:17:37.822Z,27.32
2018-10-18T06:20:05.800Z,33.53
2018-10-18T06:22:33.389Z,37.17
2018-10-18T06:25:00.908Z,32.88
2018-10-18T06:27:28.450Z,29.55
2018-10-18T06:29:55.971Z,29.63
2018-10-18T06:32:23.495Z,32.55
2018-10-18T06:34:51.013Z,32.28
2018-10-18T06:37:18.626Z,30.75
2018-10-18T06:39:46.073Z,31.50
2018-10-18T06:42:13.686Z,27.70
2018-10-18T06:44:41.245Z,27.30
2018-10-18T06:47:08.889Z,28.15
2018-10-18T06:49:36.522Z,30.85
2018-10-18T06:52:04.367Z,29.48
2018-10-18T06:54:31.916Z,29.40
2018-10-18T06:56:59.461Z,29.63
2018-10-18T06:59:27.765Z,29.55
2018-10-18T07:01:55.264Z,27.82
2018-10-18T07:04:22.786Z,26.97
2018-10-18T07:06:50.340Z,27.15
2018-10-18T07:09:17.874Z,27.00
2018-10-18T07:11:45.438Z,26.20
2018-10-18T07:14:13.055Z,24.55
2018-10-18T07:16:40.635Z,24.03
2018-10-18T07:19:08.227Z,25.20
2018-10-18T07:21:35.808Z,26.90
2018-10-18T07:24:03.527Z,25.43
2018-10-18T07:26:31.152Z,25.33
2018-10-18T07:28:58.743Z,24.43
2018-10-18T07:31:26.949Z,25.03
2018-10-18T07:33:54.507Z,25.03
2018-10-18T07:36:25.349Z,25.23
2018-10-18T07:38:52.973Z,25.33
2018-10-18T07:41:21.626Z,27.47
2018-10-18T07:43:49.163Z,26.60
2018-10-18T07:46:17.551Z,26.10
2018-10-18T07:48:45.166Z,31.17
2018-10-18T07:51:12.872Z,26.57
2018-10-18T07:53:40.562Z,29.10
2018-10-18T07:56:08.064Z,27.20
2018-10-18T07:58:35.733Z,26.30
2018-10-18T08:01:03.364Z,29.90
2018-10-18T08:03:31.714Z,27.60
2018-10-18T08:05:59.280Z,28.20
2018-10-18T08:08:26.892Z,28.77
2018-10-18T08:10:54.662Z,29.10
2018-10-18T08:13:22.240Z,31.57
2018-10-18T08:15:50.758Z,28.77
2018-10-18T08:18:19.747Z,29.43
2018-10-18T08:20:48.142Z,31.73
2018-10-18T08:23:15.781Z,29.97
2018-10-18T08:25:43.422Z,31.13
2018-10-18T08:28:11.221Z,31.03
2018-10-18T08:30:38.809Z,30.23
2018-10-18T08:33:06.417Z,32.07
2018-10-18T08:35:34.027Z,29.57
2018-10-18T08:38:01.786Z,31.97
2018-10-18T08:40:29.207Z,30.90
2018-10-18T08:42:56.865Z,32.30
2018-10-18T08:45:24.392Z,31.73
2018-10-18T08:47:53.362Z,31.53
2018-10-18T08:50:21.388Z,33.83
2018-10-18T08:52:48.972Z,32.67
2018-10-18T08:55:16.644Z,35.70
2018-10-18T08:57:44.150Z,37.50
2018-10-18T09:00:12.378Z,36.80
2018-10-18T09:02:40.860Z,38.20
2018-10-18T09:05:08.742Z,35.30
2018-10-18T09:07:36.824Z,38.00
2018-10-18T09:10:05.300Z,38.37
2018-10-18T09:12:33.276Z,37.40
2018-10-18T09:15:00.837Z,36.60
2018-10-18T09:17:28.405Z,39.50
2018-10-18T09:19:55.985Z,40.30
2018-10-18T09:22:23.556Z,39.00
2018-10-18T09:24:51.161Z,39.77
2018-10-18T09:27:18.673Z,40.47
2018-10-18T09:29:46.279Z,45.23
2018-10-18T09:32:13.835Z,43.90
2018-10-18T09:34:41.370Z,43.60
2018-10-18T09:37:09.056Z,43.53
2018-10-18T09:39:36.544Z,41.00
2018-10-18T09:42:04.801Z,43.43
2018-10-18T09:44:32.417Z,42.27
2018-10-18T09:47:00.004Z,43.30
2018-10-18T09:49:27.591Z,42.93
2018-10-18T09:51:55.162Z,42.00
2018-10-18T09:54:22.781Z,41.03
2018-10-18T09:56:51.114Z,43.10
2018-10-18T09:59:18.641Z,46.33
2018-10-18T10:01:51.675Z,42.43
2018-10-18T10:04:19.340Z,42.50
2018-10-18T10:06:46.928Z,42.70
2018-10-18T10:09:14.491Z,41.07
2018-10-18T10:11:42.204Z,41.20
2018-10-18T10:14:09.666Z,42.93
2018-10-18T10:16:37.455Z,42.80
2018-10-18T10:19:05.128Z,42.03
2018-10-18T10:21:32.748Z,43.10
2018-10-18T10:24:00.302Z,42.20
2018-10-18T10:26:27.897Z,44.70
2018-10-18T10:28:55.417Z,44.67
2018-10-18T10:31:22.964Z,43.50
2018-10-18T10:33:50.531Z,40.20
2018-10-18T10:36:18.160Z,38.40
2018-10-18T10:38:45.696Z,42.77
2018-10-18T10:41:13.556Z,40.27
2018-10-18T10:43:40.912Z,40.60
2018-10-18T10:46:08.549Z,40.97
2018-10-18T10:48:36.116Z,40.90
2018-10-18T10:51:03.728Z,40.77
2018-10-18T10:53:31.297Z,40.20
2018-10-18T10:55:58.852Z,38.77
2018-10-18T10:58:26.488Z,40.67
2018-10-18T11:01:25.790Z,40.30
2018-10-18T11:03:54.636Z,39.30
2018-10-18T11:06:22.506Z,40.10
2018-10-18T11:08:50.102Z,39.63
2018-10-18T11:11:18.132Z,41.10
2018-10-18T11:13:45.773Z,39.63
2018-10-18T11:16:13.381Z,40.37
2018-10-18T11:18:41.353Z,39.10
2018-10-18T11:21:10.782Z,39.33
2018-10-18T11:23:38.340Z,39.60
2018-10-18T11:26:06.084Z,37.97
2018-10-18T11:28:33.605Z,38.13
2018-10-18T11:31:01.262Z,41.30
2018-10-18T11:33:28.823Z,42.27
2018-10-18T11:35:56.477Z,40.70
2018-10-18T11:38:24.000Z,41.70
2018-10-18T11:40:51.561Z,41.13
2018-10-18T11:43:19.108Z,40.70
2018-10-18T11:45:46.662Z,41.27
2018-10-18T11:48:14.776Z,42.20
2018-10-18T11:50:42.703Z,40.50
2018-10-18T11:53:10.360Z,40.77
2018-10-18T11:55:37.997Z,42.77
2018-10-18T11:58:06.609Z,41.00
2018-10-18T12:00:34.162Z,40.97
2018-10-18T12:03:01.741Z,40.63
2018-10-18T12:05:29.413Z,41.43
2018-10-18T12:07:57.100Z,41.63
2018-10-18T12:10:24.672Z,40.50
2018-10-18T12:12:52.199Z,42.40
2018-10-18T12:15:19.749Z,45.30
2018-10-18T12:17:47.288Z,43.80
2018-10-18T12:20:16.002Z,46.40
2018-10-18T12:22:43.518Z,43.87
2018-10-18T12:25:11.858Z,45.50
2018-10-18T12:27:39.516Z,44.07
2018-10-18T12:30:07.839Z,43.57
2018-10-18T12:32:35.869Z,44.80
2018-10-18T12:35:03.554Z,42.70
2018-10-18T12:37:31.073Z,43.57
2018-10-18T12:39:58.644Z,42.80
2018-10-18T12:42:26.201Z,44.60
2018-10-18T12:44:53.759Z,43.97
2018-10-18T12:47:21.338Z,43.20
2018-10-18T12:49:48.875Z,45.40
2018-10-18T12:52:16.435Z,45.37
2018-10-18T12:54:43.968Z,45.63
2018-10-18T12:57:12.399Z,44.80
2018-10-18T12:59:39.971Z,43.73
2018-10-18T13:02:07.665Z,43.50
2018-10-18T13:04:35.621Z,43.57
2018-10-18T13:07:03.646Z,44.40
2018-10-18T13:09:31.235Z,43.17
2018-10-18T13:11:59.688Z,43.40
2018-10-18T13:14:28.142Z,43.83
2018-10-18T13:16:55.849Z,43.70
2018-10-18T13:19:23.431Z,42.60
2018-10-18T13:21:50.960Z,41.23
2018-10-18T13:24:18.642Z,41.90
2018-10-18T13:26:46.126Z,41.17
2018-10-18T13:29:13.838Z,40.63
2018-10-18T13:31:41.358Z,42.17
2018-10-18T13:34:08.888Z,42.30
2018-10-18T13:36:36.503Z,39.23
2018-10-18T13:39:07.443Z,40.20
2018-10-18T13:41:35.006Z,39.47
2018-10-18T13:44:02.576Z,41.50
2018-10-18T13:46:30.179Z,44.47
2018-10-18T13:48:57.736Z,43.90
2018-10-18T13:51:25.303Z,42.50
2018-10-18T13:53:52.907Z,45.53
2018-10-18T13:56:20.411Z,46.03
2018-10-18T13:58:47.935Z,44.50
2018-10-18T14:01:15.490Z,44.90
2018-10-18T14:03:43.040Z,44.57
2018-10-18T14:06:10.593Z,45.17
2018-10-18T14:08:38.170Z,45.77
2018-10-18T14:11:05.782Z,46.57
2018-10-18T14:13:33.254Z,46.33
2018-10-18T14:16:00.796Z,45.80
2018-10-18T14:18:28.342Z,46.57
2018-10-18T14:20:55.870Z,48.97
2018-10-18T14:23:23.373Z,45.67
2018-10-18T14:25:50.957Z,46.23
2018-10-18T14:28:18.598Z,47.87
2018-10-18T14:30:46.261Z,47.23
2018-10-18T14:33:13.835Z,46.37
2018-10-18T14:35:41.380Z,48.20
2018-10-18T14:38:09.066Z,47.73
2018-10-18T14:40:36.528Z,48.63
2018-10-18T14:43:04.139Z,47.13
2018-10-18T14:45:31.690Z,48.07
2018-10-18T14:47:59.240Z,47.40
2018-10-18T14:50:26.837Z,47.90
2018-10-18T14:52:54.353Z,48.90
2018-10-18T14:55:21.953Z,48.60
2018-10-18T14:57:49.633Z,48.93
2018-10-18T15:00:17.189Z,49.90
2018-10-18T15:02:44.719Z,48.90
2018-10-18T15:05:12.999Z,51.33
2018-10-18T15:07:40.902Z,49.20
2018-10-18T15:10:12.522Z,51.03
2018-10-18T15:12:40.491Z,50.07
2018-10-18T15:15:08.971Z,50.27
2018-10-18T15:17:36.520Z,51.77
2018-10-18T15:20:05.453Z,51.60
2018-10-18T15:22:32.960Z,48.80
2018-10-18T15:25:00.536Z,49.90
2018-10-18T15:27:28.354Z,50.70
2018-10-18T15:29:55.766Z,52.80
2018-10-18T15:32:23.371Z,51.00
2018-10-18T15:34:50.966Z,75.75
2018-10-18T15:37:18.627Z,55.67
2018-10-18T15:39:46.270Z,75.47
2018-10-18T15:42:13.825Z,59.50
2018-10-18T15:44:41.420Z,51.80
2018-10-18T15:47:09.129Z,51.20
2018-10-18T15:49:36.645Z,54.93
2018-10-18T15:52:04.389Z,56.00
2018-10-18T15:54:32.240Z,53.08
2018-10-18T15:56:59.842Z,54.10
2018-10-18T15:59:27.379Z,53.13
2018-10-18T16:01:54.960Z,54.23
2018-10-18T16:04:22.518Z,56.60
2018-10-18T16:06:50.110Z,56.77
2018-10-18T16:09:17.656Z,55.65
2018-10-18T16:11:45.234Z,50.52
2018-10-18T16:14:12.901Z,58.50
2018-10-18T16:16:40.370Z,57.35
2018-10-18T16:19:07.946Z,54.33
2018-10-18T16:21:35.612Z,58.85
2018-10-18T16:24:03.428Z,59.90
2018-10-18T16:26:31.027Z,56.25
2018-10-18T16:28:58.972Z,65.12
2018-10-18T16:31:26.529Z,60.75
2018-10-18T16:33:54.126Z,58.28
2018-10-18T16:36:21.689Z,55.75
2018-10-18T16:38:49.285Z,61.53
2018-10-18T16:41:17.010Z,58.08
2018-10-18T16:43:44.507Z,52.50
2018-10-18T16:46:12.118Z,57.55
2018-10-18T16:48:39.710Z,54.65
2018-10-18T16:51:07.284Z,59.58
2018-10-18T16:53:34.915Z,55.78
2018-10-18T16:56:02.892Z,55.38
2018-10-18T16:58:30.461Z,54.55
2018-10-18T17:00:58.261Z,57.95
2018-10-18T17:03:25.862Z,54.13
2018-10-18T17:05:53.395Z,54.80
2018-10-18T17:08:21.098Z,64.65
2018-10-18T17:10:48.572Z,56.33
2018-10-18T17:13:16.171Z,63.00
2018-10-18T17:15:43.745Z,74.20
2018-10-18T17:18:11.419Z,90.85
2018-10-18T17:20:39.067Z,61.02
2018-10-18T17:23:06.535Z,52.90
2018-10-18T17:25:34.209Z,54.10
2018-10-18T17:28:02.103Z,54.88
2018-10-18T17:30:29.659Z,50.80
2018-10-18T17:32:57.248Z,50.25
2018-10-18T17:35:24.789Z,50.95
2018-10-18T17:37:52.390Z,50.60
2018-10-18T17:40:20.241Z,53.05
2018-10-18T17:42:47.742Z,47.62
2018-10-18T17:45:15.327Z,44.70
2018-10-18T17:47:44.049Z,45.88
2018-10-18T17:50:11.712Z,46.30
2018-10-18T17:52:39.276Z,45.88
2018-10-18T17:55:07.726Z,46.08
2018-10-18T17:57:35.773Z,44.38
2018-10-18T18:00:05.443Z,47.85
2018-10-18T18:02:33.037Z,44.85
2018-10-18T18:05:00.583Z,42.67
2018-10-18T18:07:28.158Z,43.87
2018-10-18T18:09:55.762Z,44.65
2018-10-18T18:12:23.336Z,39.45
2018-10-18T18:14:50.892Z,44.08
2018-10-18T18:17:18.671Z,39.03
2018-10-18T18:19:46.302Z,35.48
2018-10-18T18:22:13.945Z,40.08
2018-10-18T18:24:42.896Z,38.15
2018-10-18T18:27:10.501Z,40.90
2018-10-18T18:29:38.089Z,41.15
2018-10-18T18:32:05.756Z,40.50
2018-10-18T18:34:33.269Z,40.58
2018-10-18T18:37:00.824Z,39.95
2018-10-18T18:39:28.428Z,35.23
2018-10-18T18:41:55.965Z,38.53
2018-10-18T18:44:23.532Z,38.45
2018-10-18T18:46:51.074Z,42.53
2018-10-18T18:49:18.707Z,37.73
2018-10-18T18:51:46.254Z,39.80
2018-10-18T18:54:13.817Z,35.65
2018-10-18T18:56:41.380Z,39.20
2018-10-18T18:59:08.932Z,45.52
2018-10-18T19:01:36.483Z,43.50
2018-10-18T19:04:04.797Z,44.88
2018-10-18T19:06:32.480Z,38.23
2018-10-18T19:09:00.526Z,37.53
2018-10-18T19:11:28.048Z,36.15
2018-10-18T19:13:55.666Z,38.17
2018-10-18T19:16:24.279Z,44.65
2018-10-18T19:18:51.811Z,37.20
2018-10-18T19:21:19.350Z,38.08
2018-10-18T19:23:46.891Z,38.45
2018-10-18T19:26:14.453Z,34.67
2018-10-18T19:28:42.048Z,32.35
2018-10-18T19:31:09.553Z,35.95
2018-10-18T19:33:37.091Z,31.82
2018-10-18T19:36:04.699Z,31.57
2018-10-18T19:38:32.317Z,30.85
2018-10-18T19:40:59.790Z,31.62
2018-10-18T19:43:27.380Z,30.70
2018-10-18T19:45:54.958Z,29.15
2018-10-18T19:48:22.459Z,28.27
2018-10-18T19:50:50.846Z,30.90
2018-10-18T19:53:18.314Z,28.95
2018-10-18T19:55:45.943Z,29.80
2018-10-18T19:58:13.567Z,28.15
2018-10-18T20:00:41.022Z,26.82
2018-10-18T20:03:08.588Z,30.27
2018-10-18T20:05:36.314Z,28.67
2018-10-18T20:08:04.131Z,27.27
2018-10-18T20:10:31.787Z,26.12
2018-10-18T20:12:59.574Z,26.87
2018-10-18T20:15:26.998Z,24.63
2018-10-18T20:17:54.531Z,27.30
2018-10-18T20:20:22.302Z,24.60
2018-10-18T20:22:49.875Z,21.33
2018-10-18T20:25:17.421Z,21.55
2018-10-18T20:27:44.953Z,22.90
2018-10-18T20:30:13.948Z,20.68
2018-10-18T20:32:42.198Z,21.75
2018-10-18T20:35:11.326Z,20.02
2018-10-18T20:37:39.565Z,21.62
2018-10-18T20:40:09.494Z,18.65
2018-10-18T20:42:37.069Z,18.45
2018-10-18T20:45:05.552Z,16.85
2018-10-18T20:47:33.234Z,17.45
2018-10-18T20:50:00.652Z,16.60
2018-10-18T20:52:28.222Z,19.10
2018-10-18T20:54:55.800Z,20.43
2018-10-18T20:57:23.406Z,20.00
2018-10-18T20:59:51.029Z,18.50
2018-10-18T21:02:18.765Z,19.12
2018-10-18T21:04:46.312Z,20.12
2018-10-18T21:07:14.538Z,20.00
2018-10-18T21:09:42.653Z,19.27
2018-10-18T21:12:10.255Z,21.10
2018-10-18T21:14:37.909Z,18.70
2018-10-18T21:17:05.916Z,18.70
2018-10-18T21:19:33.389Z,18.75
2018-10-18T21:22:02.328Z,19.82
2018-10-18T21:24:30.165Z,20.17
2018-10-18T21:26:58.651Z,19.57
2018-10-18T21:29:26.165Z,20.52
2018-10-18T21:31:53.808Z,21.20
2018-10-18T21:34:21.401Z,20.20
2018-10-18T21:36:49.215Z,22.85
2018-10-18T21:39:32.598Z,21.00
2018-10-18T21:42:01.247Z,20.00
2018-10-18T21:44:30.484Z,20.48
2018-10-18T21:46:58.577Z,21.55
2018-10-18T21:49:26.808Z,20.02
2018-10-18T21:51:54.367Z,20.97
2018-10-18T21:54:22.550Z,21.23
2018-10-18T21:56:50.357Z,19.55
2018-10-18T21:59:17.960Z,19.40
2018-10-18T22:01:46.222Z,19.90
2018-10-18T22:04:14.127Z,20.57
2018-10-18T22:06:41.689Z,19.50
2018-10-18T22:09:09.255Z,19.15
2018-10-18T22:11:37.938Z,19.85
2018-10-18T22:14:06.412Z,19.00
2018-10-18T22:16:33.966Z,19.85
2018-10-18T22:19:01.939Z,21.68
2018-10-18T22:21:29.481Z,20.45
2018-10-18T22:23:57.091Z,19.23
2018-10-18T22:26:24.558Z,19.65
2018-10-18T22:28:52.114Z,19.23
2018-10-18T22:31:19.614Z,19.85
2018-10-18T22:33:47.179Z,18.45
2018-10-18T22:36:14.798Z,20.25
2018-10-18T22:38:42.413Z,18.00
2018-10-18T22:41:10.136Z,20.25
2018-10-18T22:43:38.327Z,19.10
2018-10-18T22:46:06.623Z,20.00
2018-10-18T22:48:34.258Z,17.02
2018-10-18T22:51:01.921Z,18.27
2018-10-18T22:53:29.498Z,20.82
2018-10-18T22:55:57.029Z,17.95
2018-10-18T22:58:24.803Z,17.87
2018-10-18T23:00:52.355Z,20.25
2018-10-18T23:03:20.649Z,18.67
2018-10-18T23:05:48.727Z,19.12
2018-10-18T23:08:16.223Z,18.60
2018-10-18T23:10:44.242Z,18.92
2018-10-18T23:13:11.809Z,17.32
2018-10-18T23:15:40.312Z,18.17
2018-10-18T23:18:08.877Z,17.80
2018-10-18T23:20:36.954Z,17.25
2018-10-18T23:23:04.763Z,17.00
2018-10-18T23:25:33.828Z,16.32
2018-10-18T23:28:01.790Z,16.73
2018-10-18T23:30:29.940Z,17.65
2018-10-18T23:32:57.568Z,17.75
2018-10-18T23:35:25.027Z,16.17
2018-10-18T23:37:52.584Z,17.70
2018-10-18T23:40:20.271Z,16.90
2018-10-18T23:42:47.782Z,16.77
2018-10-18T23:45:15.412Z,18.40
2018-10-18T23:47:42.879Z,14.10
2018-10-18T23:50:10.431Z,15.78
2018-10-18T23:52:37.989Z,17.12
2018-10-18T23:55:05.667Z,16.40
2018-10-18T23:57:33.198Z,19.00
